createdAt,value
2017-02-21T00:00:09.320Z,0
2017-02-21T00:01:09.223Z,0
2017-02-21T00:02:09.257Z,0
2017-02-21T00:03:08.768Z,0
2017-02-21T00:04:08.861Z,0
2017-02-21T00:05:08.754Z,0
2017-02-21T00:06:09.106Z,0
2017-02-21T00:07:09.100Z,0
2017-02-21T00:08:08.730Z,0
2017-02-21T00:09:09.509Z,0
2017-02-21T00:10:09.148Z,0
2017-02-21T00:11:09.418Z,0
2017-02-21T00:12:09.548Z,0
2017-02-21T00:13:09.005Z,0
2017-02-21T00:14:08.967Z,0
2017-02-21T00:15:08.940Z,0
2017-02-21T00:16:08.933Z,0
2017-02-21T00:17:08.914Z,0
2017-02-21T00:18:09.390Z,0
2017-02-21T00:19:08.513Z,0
2017-02-21T00:20:08.833Z,0
2017-02-21T00:21:09.230Z,0
2017-02-21T00:22:08.872Z,0
2017-02-21T00:23:08.403Z,0
2017-02-21T00:24:09.151Z,0
2017-02-21T00:25:08.370Z,0
2017-02-21T00:26:08.748Z,0
2017-02-21T00:27:09.100Z,0
2017-02-21T00:28:09.109Z,0
2017-02-21T00:29:09.046Z,0
2017-02-21T00:30:08.259Z,0
2017-02-21T00:31:08.238Z,0
2017-02-21T00:32:08.997Z,0
2017-02-21T00:33:09.038Z,0
2017-02-21T00:34:08.704Z,0
2017-02-21T00:35:08.947Z,0
2017-02-21T00:36:08.538Z,0
2017-02-21T00:37:08.184Z,0
2017-02-21T00:38:08.102Z,0
2017-02-21T00:39:07.776Z,0
2017-02-21T00:40:08.843Z,0
2017-02-21T00:41:08.042Z,0
2017-02-21T00:42:08.843Z,0
2017-02-21T00:43:08.400Z,0
2017-02-21T00:44:08.373Z,0
2017-02-21T00:45:08.369Z,0
2017-02-21T00:46:08.729Z,0
2017-02-21T00:47:08.330Z,0
2017-02-21T00:48:07.921Z,0
2017-02-21T00:49:08.669Z,0
2017-02-21T00:50:07.861Z,0
2017-02-21T00:51:07.862Z,0
2017-02-21T00:52:08.666Z,0
2017-02-21T00:53:08.207Z,0
2017-02-21T00:54:08.180Z,0
2017-02-21T00:55:08.214Z,0
2017-02-21T00:56:08.573Z,0
2017-02-21T00:57:08.114Z,0
2017-02-21T00:58:07.706Z,0
2017-02-21T00:59:08.471Z,0
2017-02-21T01:00:08.062Z,0
2017-02-21T01:01:08.432Z,0
2017-02-21T01:02:08.501Z,0
2017-02-21T01:03:07.249Z,0
2017-02-21T01:04:07.987Z,0
2017-02-21T01:05:08.333Z,0
2017-02-21T01:06:08.349Z,0
2017-02-21T01:07:07.912Z,0
2017-02-21T01:08:08.287Z,0
2017-02-21T01:09:07.488Z,0
2017-02-21T01:10:07.869Z,0
2017-02-21T01:11:07.932Z,0
2017-02-21T01:12:08.244Z,0
2017-02-21T01:13:07.807Z,0
2017-02-21T01:14:07.754Z,0
2017-02-21T01:15:07.083Z,0
2017-02-21T01:16:07.767Z,0
2017-02-21T01:17:07.710Z,0
2017-02-21T01:18:07.711Z,0
2017-02-21T01:19:08.082Z,0
2017-02-21T01:20:07.242Z,0
2017-02-21T01:21:08.037Z,0
2017-02-21T01:22:06.847Z,0
2017-02-21T01:23:07.228Z,0
2017-02-21T01:24:07.605Z,0
2017-02-21T01:25:07.191Z,0
2017-02-21T01:26:07.551Z,0
2017-02-21T01:27:06.757Z,0
2017-02-21T01:28:07.900Z,0
2017-02-21T01:29:07.477Z,0
2017-02-21T01:30:07.858Z,0
2017-02-21T01:31:07.838Z,0
2017-02-21T01:32:07.042Z,0
2017-02-21T01:33:06.713Z,0
2017-02-21T01:34:07.034Z,0
2017-02-21T01:35:06.995Z,0
2017-02-21T01:36:06.974Z,0
2017-02-21T01:37:07.751Z,0
2017-02-21T01:38:07.702Z,0
2017-02-21T01:39:06.909Z,0
2017-02-21T01:40:07.289Z,0
2017-02-21T01:41:06.880Z,0
2017-02-21T01:42:06.859Z,0
2017-02-21T01:43:07.640Z,0
2017-02-21T01:44:06.478Z,0
2017-02-21T01:45:06.789Z,0
2017-02-21T01:46:06.773Z,0
2017-02-21T01:47:07.618Z,0
2017-02-21T01:48:06.732Z,0
2017-02-21T01:49:07.208Z,0
2017-02-21T01:50:07.075Z,0
2017-02-21T01:51:07.165Z,0
2017-02-21T01:52:06.675Z,0
2017-02-21T01:53:07.033Z,0
2017-02-21T01:54:07.005Z,0
2017-02-21T01:55:07.095Z,0
2017-02-21T01:56:05.802Z,0
2017-02-21T01:57:06.570Z,0
2017-02-21T01:58:06.132Z,0
2017-02-21T01:59:06.990Z,0
2017-02-21T02:00:06.520Z,0
2017-02-21T02:01:07.339Z,0
2017-02-21T02:02:06.838Z,0
2017-02-21T02:03:06.868Z,0
2017-02-21T02:04:07.208Z,0
2017-02-21T02:05:06.848Z,0
2017-02-21T02:06:06.376Z,0
2017-02-21T02:07:06.379Z,0
2017-02-21T02:08:06.815Z,0
2017-02-21T02:09:05.942Z,0
2017-02-21T02:10:06.315Z,0
2017-02-21T02:11:05.495Z,0
2017-02-21T02:12:06.246Z,0
2017-02-21T02:13:06.234Z,0
2017-02-21T02:14:06.652Z,0
2017-02-21T02:15:06.187Z,0
2017-02-21T02:16:06.638Z,0
2017-02-21T02:17:06.540Z,0
2017-02-21T02:18:06.958Z,0
2017-02-21T02:19:06.514Z,0
2017-02-21T02:20:06.895Z,0
2017-02-21T02:21:06.526Z,0
2017-02-21T02:22:06.481Z,0
2017-02-21T02:23:06.907Z,0
2017-02-21T02:24:06.860Z,0
2017-02-21T02:25:06.794Z,0
2017-02-21T02:26:05.591Z,0
2017-02-21T02:27:07.005Z,0
2017-02-21T02:28:06.724Z,0
2017-02-21T02:29:05.938Z,0
2017-02-21T02:30:06.315Z,0
2017-02-21T02:31:06.299Z,0
2017-02-21T02:32:05.880Z,0
2017-02-21T02:33:06.657Z,0
2017-02-21T02:34:06.249Z,0
2017-02-21T02:35:05.850Z,0
2017-02-21T02:36:05.814Z,0
2017-02-21T02:37:06.160Z,0
2017-02-21T02:38:05.734Z,0
2017-02-21T02:39:05.748Z,0
2017-02-21T02:40:05.701Z,0
2017-02-21T02:41:06.070Z,0
2017-02-21T02:42:05.652Z,0
2017-02-21T02:43:06.058Z,0
2017-02-21T02:44:06.027Z,0
2017-02-21T02:45:05.986Z,0
2017-02-21T02:46:05.603Z,0
2017-02-21T02:47:05.555Z,0
2017-02-21T02:48:05.540Z,0
2017-02-21T02:49:05.150Z,0
2017-02-21T02:50:05.127Z,0
2017-02-21T02:51:05.882Z,0
2017-02-21T02:52:06.242Z,0
2017-02-21T02:53:06.249Z,0
2017-02-21T02:54:05.473Z,0
2017-02-21T02:55:06.203Z,0
2017-02-21T02:56:05.778Z,0
2017-02-21T02:57:04.680Z,0
2017-02-21T02:58:05.397Z,0
2017-02-21T02:59:05.716Z,0
2017-02-21T03:00:04.917Z,0
2017-02-21T03:01:05.697Z,0
2017-02-21T03:02:05.276Z,0
2017-02-21T03:03:06.068Z,0
2017-02-21T03:04:05.619Z,0
2017-02-21T03:05:06.083Z,0
2017-02-21T03:06:04.812Z,0
2017-02-21T03:07:05.942Z,0
2017-02-21T03:08:05.927Z,0
2017-02-21T03:09:05.123Z,0
2017-02-21T03:10:05.116Z,0
2017-02-21T03:11:05.864Z,0
2017-02-21T03:12:05.482Z,0
2017-02-21T03:13:05.050Z,0
2017-02-21T03:14:05.021Z,0
2017-02-21T03:15:05.019Z,0
2017-02-21T03:16:05.389Z,0
2017-02-21T03:17:05.759Z,0
2017-02-21T03:18:04.983Z,0
2017-02-21T03:19:05.375Z,0
2017-02-21T03:20:04.925Z,0
2017-02-21T03:21:04.920Z,0
2017-02-21T03:22:04.496Z,0
2017-02-21T03:23:05.639Z,0
2017-02-21T03:24:05.240Z,0
2017-02-21T03:25:04.432Z,0
2017-02-21T03:26:04.782Z,0
2017-02-21T03:27:04.380Z,0
2017-02-21T03:28:05.139Z,0
2017-02-21T03:29:05.500Z,0
2017-02-21T03:30:04.721Z,0
2017-02-21T03:31:05.140Z,0
2017-02-21T03:32:04.289Z,0
2017-02-21T03:33:05.434Z,0
2017-02-21T03:34:05.026Z,0
2017-02-21T03:35:04.244Z,0
2017-02-21T03:36:04.977Z,0
2017-02-21T03:37:04.184Z,0
2017-02-21T03:38:04.555Z,0
2017-02-21T03:39:04.541Z,0
2017-02-21T03:40:04.515Z,0
2017-02-21T03:41:04.894Z,0
2017-02-21T03:42:04.855Z,0
2017-02-21T03:43:04.457Z,0
2017-02-21T03:44:05.284Z,0
2017-02-21T03:45:04.785Z,0
2017-02-21T03:46:04.822Z,0
2017-02-21T03:47:04.765Z,0
2017-02-21T03:48:04.821Z,0
2017-02-21T03:49:03.937Z,0
2017-02-21T03:50:05.152Z,0
2017-02-21T03:51:04.728Z,0
2017-02-21T03:52:04.648Z,0
2017-02-21T03:53:04.267Z,0
2017-02-21T03:54:04.288Z,0
2017-02-21T03:55:04.560Z,0
2017-02-21T03:56:04.589Z,0
2017-02-21T03:57:04.953Z,0
2017-02-21T03:58:04.976Z,0
2017-02-21T03:59:04.528Z,0
2017-02-21T04:00:04.507Z,0
2017-02-21T04:01:03.697Z,0
2017-02-21T04:02:04.851Z,0
2017-02-21T04:03:04.854Z,0
2017-02-21T04:04:03.650Z,0
2017-02-21T04:05:04.422Z,0
2017-02-21T04:06:04.001Z,0
2017-02-21T04:07:03.961Z,0
2017-02-21T04:08:04.811Z,0
2017-02-21T04:09:03.943Z,0
2017-02-21T04:10:04.351Z,0
2017-02-21T04:11:04.262Z,0
2017-02-21T04:12:04.260Z,0
2017-02-21T04:13:04.265Z,0
2017-02-21T04:14:03.827Z,0
2017-02-21T04:15:04.192Z,0
2017-02-21T04:16:04.551Z,0
2017-02-21T04:17:04.173Z,0
2017-02-21T04:18:03.752Z,0
2017-02-21T04:19:03.731Z,0
2017-02-21T04:20:04.074Z,0
2017-02-21T04:21:03.714Z,0
2017-02-21T04:22:03.954Z,0
2017-02-21T04:23:03.643Z,0
2017-02-21T04:24:04.394Z,0
2017-02-21T04:25:04.010Z,0
2017-02-21T04:26:04.362Z,0
2017-02-21T04:27:03.552Z,0
2017-02-21T04:28:03.535Z,0
2017-02-21T04:29:03.908Z,0
2017-02-21T04:30:03.139Z,0
2017-02-21T04:31:03.877Z,0
2017-02-21T04:32:03.848Z,0
2017-02-21T04:33:03.920Z,0
2017-02-21T04:34:03.474Z,0
2017-02-21T04:35:03.405Z,0
2017-02-21T04:36:03.756Z,0
2017-02-21T04:37:03.755Z,0
2017-02-21T04:38:03.737Z,0
2017-02-21T04:39:02.545Z,0
2017-02-21T04:40:04.084Z,0
2017-02-21T04:41:03.280Z,0
2017-02-21T04:42:03.688Z,0
2017-02-21T04:43:03.253Z,0
2017-02-21T04:44:03.621Z,0
2017-02-21T04:45:04.045Z,0
2017-02-21T04:46:03.261Z,0
2017-02-21T04:47:03.547Z,0
2017-02-21T04:48:03.219Z,0
2017-02-21T04:49:02.716Z,0
2017-02-21T04:50:02.806Z,0
2017-02-21T04:51:03.471Z,0
2017-02-21T04:52:03.468Z,0
2017-02-21T04:53:03.427Z,0
2017-02-21T04:54:03.828Z,0
2017-02-21T04:55:03.393Z,0
2017-02-21T04:56:02.984Z,0
2017-02-21T04:57:03.341Z,0
2017-02-21T04:58:03.299Z,0
2017-02-21T04:59:02.509Z,0
2017-02-21T05:00:03.694Z,0
2017-02-21T05:01:02.892Z,0
2017-02-21T05:02:02.562Z,0
2017-02-21T05:03:02.834Z,0
2017-02-21T05:04:03.210Z,0
2017-02-21T05:05:03.577Z,0
2017-02-21T05:06:03.533Z,0
2017-02-21T05:07:03.129Z,0
2017-02-21T05:08:02.759Z,0
2017-02-21T05:09:03.536Z,0
2017-02-21T05:10:03.079Z,0
2017-02-21T05:11:02.298Z,0
2017-02-21T05:12:02.647Z,0
2017-02-21T05:13:02.596Z,0
2017-02-21T05:14:02.227Z,0
2017-02-21T05:15:03.368Z,0
2017-02-21T05:16:02.951Z,0
2017-02-21T05:17:03.316Z,0
2017-02-21T05:18:02.568Z,0
2017-02-21T05:19:02.104Z,0
2017-02-21T05:20:02.183Z,0
2017-02-21T05:21:02.953Z,0
2017-02-21T05:22:02.433Z,0
2017-02-21T05:23:03.185Z,0
2017-02-21T05:24:02.462Z,0
2017-02-21T05:25:01.996Z,0
2017-02-21T05:26:02.389Z,0
2017-02-21T05:27:02.343Z,0
2017-02-21T05:28:02.804Z,0
2017-02-21T05:29:03.091Z,0
2017-02-21T05:30:03.045Z,0
2017-02-21T05:31:03.028Z,0
2017-02-21T05:32:03.060Z,0
2017-02-21T05:33:02.995Z,0
2017-02-21T05:34:02.662Z,0
2017-02-21T05:35:02.559Z,0
2017-02-21T05:36:02.609Z,0
2017-02-21T05:37:02.905Z,0
2017-02-21T05:38:02.559Z,0
2017-02-21T05:39:02.518Z,0
2017-02-21T05:40:02.552Z,0
2017-02-21T05:41:02.095Z,0
2017-02-21T05:42:02.495Z,0
2017-02-21T05:43:02.433Z,0
2017-02-21T05:44:02.001Z,0
2017-02-21T05:45:01.982Z,0
2017-02-21T05:46:01.608Z,0
2017-02-21T05:47:01.997Z,0
2017-02-21T05:48:01.922Z,0
2017-02-21T05:49:02.258Z,0
2017-02-21T05:50:01.531Z,0
2017-02-21T05:51:02.637Z,0
2017-02-21T05:52:01.859Z,0
2017-02-21T05:53:02.586Z,0
2017-02-21T05:54:01.497Z,0
2017-02-21T05:55:01.764Z,0
2017-02-21T05:56:02.575Z,0
2017-02-21T05:57:01.714Z,0
2017-02-21T05:58:01.422Z,0
2017-02-21T05:59:01.681Z,0
2017-02-21T06:00:02.139Z,0
2017-02-21T06:01:02.025Z,0
2017-02-21T06:02:02.146Z,0
2017-02-21T06:03:01.638Z,0
2017-02-21T06:04:02.001Z,0
2017-02-21T06:05:02.394Z,0
2017-02-21T06:06:01.531Z,0
2017-02-21T06:07:01.528Z,0
2017-02-21T06:08:02.045Z,0
2017-02-21T06:09:01.477Z,0
2017-02-21T06:10:01.854Z,0
2017-02-21T06:11:01.862Z,0
2017-02-21T06:12:01.846Z,0
2017-02-21T06:13:01.425Z,0
2017-02-21T06:14:02.156Z,0
2017-02-21T06:15:01.367Z,0
2017-02-21T06:16:01.734Z,0
2017-02-21T06:17:01.355Z,0
2017-02-21T06:18:01.836Z,0
2017-02-21T06:19:01.659Z,0
2017-02-21T06:20:02.175Z,0
2017-02-21T06:21:02.073Z,0
2017-02-21T06:22:01.609Z,0
2017-02-21T06:23:01.570Z,0
2017-02-21T06:24:01.180Z,0
2017-02-21T06:25:01.132Z,0
2017-02-21T06:26:01.508Z,0
2017-02-21T06:27:01.086Z,0
2017-02-21T06:28:01.847Z,0
2017-02-21T06:29:01.467Z,0
2017-02-21T06:30:01.817Z,0
2017-02-21T06:31:00.614Z,0
2017-02-21T06:32:00.696Z,0
2017-02-21T06:33:00.601Z,0
2017-02-21T06:34:01.736Z,0
2017-02-21T06:35:00.534Z,0
2017-02-21T06:36:00.893Z,5
2017-02-21T06:37:00.553Z,5
2017-02-21T06:38:01.264Z,5
2017-02-21T06:39:00.449Z,5
2017-02-21T06:40:00.803Z,5
2017-02-21T06:41:00.417Z,5
2017-02-21T06:42:00.408Z,5
2017-02-21T06:43:01.155Z,5
2017-02-21T06:43:59.948Z,5
2017-02-21T06:45:01.107Z,5
2017-02-21T06:46:01.518Z,5
2017-02-21T06:47:00.309Z,5
2017-02-21T06:48:01.431Z,5
2017-02-21T06:49:01.043Z,5
2017-02-21T06:50:01.021Z,5
2017-02-21T06:51:00.975Z,5
2017-02-21T06:52:00.260Z,10
2017-02-21T06:53:00.156Z,10
2017-02-21T06:54:01.313Z,5
2017-02-21T06:55:01.313Z,5
2017-02-21T06:56:00.488Z,10
2017-02-21T06:57:01.262Z,10
2017-02-21T06:58:00.872Z,15
2017-02-21T06:59:00.501Z,15
2017-02-21T07:00:01.175Z,15
2017-02-21T07:01:01.164Z,20
2017-02-21T07:02:01.242Z,20
2017-02-21T07:03:00.724Z,20
2017-02-21T07:04:01.139Z,20
2017-02-21T07:05:00.327Z,25
2017-02-21T07:06:00.655Z,25
2017-02-21T07:07:00.656Z,25
2017-02-21T07:08:00.232Z,25
2017-02-21T07:09:01.017Z,30
2017-02-21T07:10:00.995Z,30
2017-02-21T07:11:00.194Z,35
2017-02-21T07:12:00.548Z,35
2017-02-21T07:13:00.940Z,40
2017-02-21T07:14:00.116Z,40
2017-02-21T07:14:59.701Z,40
2017-02-21T07:16:00.861Z,40
2017-02-21T07:17:00.466Z,40
2017-02-21T07:17:59.630Z,45
2017-02-21T07:18:59.615Z,65
2017-02-21T07:19:59.605Z,55
2017-02-21T07:21:00.351Z,60
2017-02-21T07:22:00.728Z,55
2017-02-21T07:23:00.309Z,65
2017-02-21T07:24:00.342Z,85
2017-02-21T07:25:00.289Z,60
2017-02-21T07:26:00.256Z,55
2017-02-21T07:26:59.831Z,85
2017-02-21T07:28:00.599Z,195
2017-02-21T07:28:59.815Z,125
2017-02-21T07:29:59.819Z,55
2017-02-21T07:31:00.155Z,50
2017-02-21T07:31:59.757Z,50
2017-02-21T07:33:00.116Z,55
2017-02-21T07:34:00.137Z,55
2017-02-21T07:35:00.081Z,55
2017-02-21T07:36:00.062Z,60
2017-02-21T07:37:00.104Z,60
2017-02-21T07:37:59.618Z,65
2017-02-21T07:39:00.003Z,65
2017-02-21T07:39:59.578Z,65
2017-02-21T07:41:00.010Z,65
2017-02-21T07:41:59.157Z,60
2017-02-21T07:42:59.999Z,65
2017-02-21T07:43:59.954Z,65
2017-02-21T07:44:59.540Z,60
2017-02-21T07:45:59.852Z,60
2017-02-21T07:46:58.658Z,65
2017-02-21T07:47:59.092Z,75
2017-02-21T07:48:58.995Z,75
2017-02-21T07:50:00.165Z,75
2017-02-21T07:51:00.141Z,75
2017-02-21T07:51:59.703Z,80
2017-02-21T07:52:59.311Z,70
2017-02-21T07:53:59.297Z,65
2017-02-21T07:55:00.081Z,70
2017-02-21T07:55:59.647Z,75
2017-02-21T07:57:00.023Z,85
2017-02-21T07:57:58.889Z,90
2017-02-21T07:58:58.869Z,85
2017-02-21T07:59:59.159Z,95
2017-02-21T08:00:59.645Z,95
2017-02-21T08:01:59.607Z,95
2017-02-21T08:02:59.537Z,130
2017-02-21T08:03:59.108Z,105
2017-02-21T08:04:59.082Z,100
2017-02-21T08:05:59.886Z,85
2017-02-21T08:06:59.440Z,65
2017-02-21T08:07:59.866Z,55
2017-02-21T08:08:59.502Z,65
2017-02-21T08:09:59.392Z,60
2017-02-21T08:10:59.371Z,55
2017-02-21T08:11:59.716Z,60
2017-02-21T08:12:59.391Z,70
2017-02-21T08:13:59.271Z,75
2017-02-21T08:14:58.892Z,80
2017-02-21T08:15:59.683Z,100
2017-02-21T08:16:58.503Z,125
2017-02-21T08:17:59.637Z,495
2017-02-21T08:18:59.181Z,445
2017-02-21T08:19:59.168Z,365
2017-02-21T08:20:58.821Z,180
2017-02-21T08:21:58.756Z,875
2017-02-21T08:22:59.559Z,420
2017-02-21T08:23:58.725Z,725
2017-02-21T08:24:58.735Z,160
2017-02-21T08:25:59.079Z,140
2017-02-21T08:26:59.047Z,170
2017-02-21T08:27:59.063Z,205
2017-02-21T08:28:58.619Z,275
2017-02-21T08:29:58.978Z,225
2017-02-21T08:30:58.974Z,210
2017-02-21T08:31:58.999Z,165
2017-02-21T08:32:58.140Z,140
2017-02-21T08:33:58.899Z,125
2017-02-21T08:34:58.096Z,120
2017-02-21T08:35:58.908Z,145
2017-02-21T08:36:58.443Z,200
2017-02-21T08:37:58.082Z,175
2017-02-21T08:38:58.041Z,90
2017-02-21T08:39:58.405Z,70
2017-02-21T08:40:58.781Z,55
2017-02-21T08:41:58.374Z,50
2017-02-21T08:42:58.733Z,50
2017-02-21T08:43:58.697Z,55
2017-02-21T08:44:58.282Z,60
2017-02-21T08:45:58.700Z,65
2017-02-21T08:46:58.655Z,75
2017-02-21T08:47:58.261Z,85
2017-02-21T08:48:58.615Z,100
2017-02-21T08:49:58.605Z,110
2017-02-21T08:50:58.972Z,105
2017-02-21T08:51:58.576Z,120
2017-02-21T08:52:58.527Z,100
2017-02-21T08:53:58.136Z,100
2017-02-21T08:54:57.729Z,95
2017-02-21T08:55:58.182Z,90
2017-02-21T08:56:58.474Z,90
2017-02-21T08:57:58.465Z,90
2017-02-21T08:58:58.454Z,85
2017-02-21T08:59:58.483Z,80
2017-02-21T09:00:58.383Z,70
2017-02-21T09:01:58.462Z,70
2017-02-21T09:02:58.336Z,80
2017-02-21T09:03:57.537Z,85
2017-02-21T09:04:57.919Z,80
2017-02-21T09:05:58.330Z,70
2017-02-21T09:06:57.490Z,60
2017-02-21T09:07:58.241Z,55
2017-02-21T09:08:57.822Z,50
2017-02-21T09:09:58.197Z,50
2017-02-21T09:10:58.217Z,50
2017-02-21T09:11:58.557Z,55
2017-02-21T09:12:58.129Z,50
2017-02-21T09:13:58.136Z,45
2017-02-21T09:14:58.504Z,45
2017-02-21T09:15:58.079Z,50
2017-02-21T09:16:58.484Z,60
2017-02-21T09:17:57.745Z,65
2017-02-21T09:18:58.124Z,70
2017-02-21T09:19:57.704Z,65
2017-02-21T09:20:57.581Z,60
2017-02-21T09:21:57.991Z,55
2017-02-21T09:22:57.581Z,55
2017-02-21T09:23:57.232Z,55
2017-02-21T09:24:57.140Z,55
2017-02-21T09:25:57.913Z,50
2017-02-21T09:26:57.487Z,50
2017-02-21T09:27:57.847Z,50
2017-02-21T09:28:57.501Z,50
2017-02-21T09:29:57.096Z,45
2017-02-21T09:30:57.806Z,45
2017-02-21T09:31:57.766Z,50
2017-02-21T09:32:57.750Z,60
2017-02-21T09:33:58.141Z,65
2017-02-21T09:34:58.114Z,65
2017-02-21T09:35:58.071Z,70
2017-02-21T09:36:57.702Z,70
2017-02-21T09:37:57.641Z,75
2017-02-21T09:38:56.862Z,85
2017-02-21T09:39:56.861Z,90
2017-02-21T09:40:56.829Z,80
2017-02-21T09:41:57.584Z,75
2017-02-21T09:42:57.145Z,70
2017-02-21T09:43:57.576Z,70
2017-02-21T09:44:56.738Z,65
2017-02-21T09:45:57.577Z,65
2017-02-21T09:46:56.805Z,70
2017-02-21T09:47:56.687Z,70
2017-02-21T09:48:57.467Z,70
2017-02-21T09:49:56.633Z,55
2017-02-21T09:50:57.004Z,60
2017-02-21T09:51:57.396Z,70
2017-02-21T09:52:57.435Z,80
2017-02-21T09:53:57.700Z,80
2017-02-21T09:54:57.014Z,85
2017-02-21T09:55:57.755Z,90
2017-02-21T09:56:57.670Z,80
2017-02-21T09:57:57.263Z,75
2017-02-21T09:58:57.681Z,70
2017-02-21T09:59:57.229Z,60
2017-02-21T10:00:57.198Z,55
2017-02-21T10:01:56.799Z,55
2017-02-21T10:02:57.560Z,60
2017-02-21T10:03:57.128Z,60
2017-02-21T10:04:56.750Z,60
2017-02-21T10:05:57.485Z,75
2017-02-21T10:06:56.297Z,60
2017-02-21T10:07:57.066Z,55
2017-02-21T10:08:56.650Z,45
2017-02-21T10:09:56.634Z,40
2017-02-21T10:10:56.615Z,35
2017-02-21T10:11:57.004Z,35
2017-02-21T10:12:56.974Z,35
2017-02-21T10:13:56.161Z,40
2017-02-21T10:14:56.542Z,45
2017-02-21T10:15:56.927Z,55
2017-02-21T10:16:56.511Z,65
2017-02-21T10:17:56.898Z,85
2017-02-21T10:18:57.236Z,85
2017-02-21T10:19:56.536Z,65
2017-02-21T10:20:57.230Z,60
2017-02-21T10:21:56.400Z,65
2017-02-21T10:22:57.178Z,75
2017-02-21T10:23:56.345Z,90
2017-02-21T10:24:56.727Z,90
2017-02-21T10:25:56.715Z,95
2017-02-21T10:26:56.675Z,90
2017-02-21T10:27:57.052Z,85
2017-02-21T10:28:56.246Z,85
2017-02-21T10:29:57.015Z,110
2017-02-21T10:30:56.604Z,140
2017-02-21T10:31:56.604Z,155
2017-02-21T10:32:56.185Z,145
2017-02-21T10:33:56.927Z,115
2017-02-21T10:34:56.991Z,100
2017-02-21T10:35:56.151Z,95
2017-02-21T10:36:56.481Z,80
2017-02-21T10:37:56.082Z,85
2017-02-21T10:38:56.072Z,95
2017-02-21T10:39:56.419Z,80
2017-02-21T10:40:56.016Z,70
2017-02-21T10:41:56.830Z,75
2017-02-21T10:42:55.997Z,80
2017-02-21T10:43:56.358Z,105
2017-02-21T10:44:55.966Z,150
2017-02-21T10:45:55.976Z,135
2017-02-21T10:46:56.693Z,140
2017-02-21T10:47:56.676Z,125
2017-02-21T10:48:56.652Z,95
2017-02-21T10:49:56.215Z,85
2017-02-21T10:50:55.442Z,105
2017-02-21T10:51:56.596Z,105
2017-02-21T10:52:55.403Z,110
2017-02-21T10:53:56.172Z,130
2017-02-21T10:54:56.162Z,115
2017-02-21T10:55:55.835Z,105
2017-02-21T10:56:55.315Z,100
2017-02-21T10:57:55.374Z,105
2017-02-21T10:58:56.460Z,120
2017-02-21T10:59:56.422Z,150
2017-02-21T11:00:56.002Z,170
2017-02-21T11:01:56.411Z,180
2017-02-21T11:02:56.057Z,205
2017-02-21T11:03:55.967Z,235
2017-02-21T11:04:55.642Z,250
2017-02-21T11:05:55.997Z,235
2017-02-21T11:06:55.187Z,220
2017-02-21T11:07:55.916Z,210
2017-02-21T11:08:56.299Z,230
2017-02-21T11:09:55.464Z,220
2017-02-21T11:10:55.442Z,210
2017-02-21T11:11:55.824Z,275
2017-02-21T11:12:56.186Z,485
2017-02-21T11:13:55.813Z,230
2017-02-21T11:14:55.019Z,240
2017-02-21T11:15:56.132Z,175
2017-02-21T11:16:54.940Z,250
2017-02-21T11:17:55.693Z,160
2017-02-21T11:18:56.148Z,140
2017-02-21T11:19:54.965Z,125
2017-02-21T11:20:56.150Z,125
2017-02-21T11:21:55.260Z,125
2017-02-21T11:22:54.851Z,95
2017-02-21T11:23:55.215Z,110
2017-02-21T11:24:55.201Z,130
2017-02-21T11:25:55.218Z,165
2017-02-21T11:26:55.609Z,115
2017-02-21T11:27:54.736Z,100
2017-02-21T11:28:55.143Z,90
2017-02-21T11:29:55.487Z,105
2017-02-21T11:30:55.843Z,85
2017-02-21T11:31:55.113Z,85
2017-02-21T11:32:55.545Z,85
2017-02-21T11:33:55.802Z,70
2017-02-21T11:34:55.801Z,65
2017-02-21T11:35:55.792Z,65
2017-02-21T11:36:55.028Z,55
2017-02-21T11:37:54.984Z,50
2017-02-21T11:38:55.356Z,50
2017-02-21T11:39:55.335Z,55
2017-02-21T11:40:54.117Z,70
2017-02-21T11:41:54.481Z,85
2017-02-21T11:42:54.451Z,90
2017-02-21T11:43:55.246Z,105
2017-02-21T11:44:55.192Z,95
2017-02-21T11:45:54.779Z,90
2017-02-21T11:46:55.190Z,90
2017-02-21T11:47:54.362Z,80
2017-02-21T11:48:55.129Z,65
2017-02-21T11:49:55.807Z,60
2017-02-21T11:50:55.113Z,65
2017-02-21T11:51:54.293Z,70
2017-02-21T11:52:54.682Z,70
2017-02-21T11:53:55.433Z,90
2017-02-21T11:54:54.615Z,105
2017-02-21T11:55:54.637Z,155
2017-02-21T11:56:55.095Z,205
2017-02-21T11:57:54.187Z,135
2017-02-21T11:58:54.554Z,120
2017-02-21T11:59:55.019Z,260
2017-02-21T12:00:55.364Z,190
2017-02-21T12:01:54.874Z,435
2017-02-21T12:02:55.372Z,865
2017-02-21T12:03:54.868Z,925
2017-02-21T12:04:54.066Z,825
2017-02-21T12:05:54.460Z,285
2017-02-21T12:06:54.027Z,415
2017-02-21T12:07:54.829Z,285
2017-02-21T12:08:55.197Z,285
2017-02-21T12:09:54.762Z,415
2017-02-21T12:10:54.744Z,225
2017-02-21T12:11:54.712Z,235
2017-02-21T12:12:53.914Z,235
2017-02-21T12:13:55.087Z,230
2017-02-21T12:14:54.267Z,245
2017-02-21T12:15:54.250Z,270
2017-02-21T12:16:54.222Z,885
2017-02-21T12:17:54.651Z,390
2017-02-21T12:18:54.605Z,825
2017-02-21T12:19:54.314Z,865
2017-02-21T12:20:53.767Z,840
2017-02-21T12:21:54.557Z,860
2017-02-21T12:22:54.975Z,850
2017-02-21T12:23:54.600Z,820
2017-02-21T12:24:54.873Z,765
2017-02-21T12:25:54.509Z,680
2017-02-21T12:26:54.076Z,680
2017-02-21T12:27:54.047Z,655
2017-02-21T12:28:54.418Z,650
2017-02-21T12:29:54.005Z,205
2017-02-21T12:30:54.073Z,170
2017-02-21T12:31:54.612Z,160
2017-02-21T12:32:53.975Z,230
2017-02-21T12:33:54.362Z,255
2017-02-21T12:34:54.327Z,135
2017-02-21T12:35:54.436Z,135
2017-02-21T12:36:54.675Z,435
2017-02-21T12:37:54.352Z,430
2017-02-21T12:38:54.726Z,415
2017-02-21T12:39:54.734Z,390
2017-02-21T12:40:54.270Z,360
2017-02-21T12:41:53.449Z,350
2017-02-21T12:42:54.200Z,325
2017-02-21T12:43:54.596Z,310
2017-02-21T12:44:54.157Z,300
2017-02-21T12:45:54.158Z,300
2017-02-21T12:46:53.827Z,210
2017-02-21T12:47:53.343Z,290
2017-02-21T12:48:54.185Z,265
2017-02-21T12:49:53.796Z,335
2017-02-21T12:50:54.084Z,340
2017-02-21T12:51:53.696Z,320
2017-02-21T12:52:54.128Z,310
2017-02-21T12:53:54.462Z,225
2017-02-21T12:54:53.994Z,315
2017-02-21T12:55:53.614Z,320
2017-02-21T12:56:53.596Z,325
2017-02-21T12:57:54.395Z,315
2017-02-21T12:58:53.934Z,305
2017-02-21T12:59:53.645Z,325
2017-02-21T13:00:53.920Z,335
2017-02-21T13:01:54.017Z,325
2017-02-21T13:02:53.925Z,335
2017-02-21T13:03:54.286Z,325
2017-02-21T13:04:53.844Z,320
2017-02-21T13:05:53.862Z,325
2017-02-21T13:06:53.928Z,320
2017-02-21T13:07:53.810Z,320
2017-02-21T13:08:53.423Z,305
2017-02-21T13:09:53.417Z,295
2017-02-21T13:10:54.204Z,325
2017-02-21T13:11:53.750Z,320
2017-02-21T13:12:53.845Z,310
2017-02-21T13:13:54.133Z,305
2017-02-21T13:14:53.079Z,310
2017-02-21T13:15:53.673Z,210
2017-02-21T13:16:53.690Z,220
2017-02-21T13:17:54.060Z,285
2017-02-21T13:18:53.309Z,295
2017-02-21T13:19:53.619Z,295
2017-02-21T13:20:54.008Z,290
2017-02-21T13:21:53.604Z,280
2017-02-21T13:22:53.679Z,270
2017-02-21T13:23:53.569Z,185
2017-02-21T13:24:53.300Z,200
2017-02-21T13:25:53.924Z,265
2017-02-21T13:26:53.172Z,285
2017-02-21T13:27:52.786Z,290
2017-02-21T13:28:53.536Z,290
2017-02-21T13:29:53.477Z,185
2017-02-21T13:30:53.870Z,165
2017-02-21T13:31:53.075Z,155
2017-02-21T13:32:53.845Z,140
2017-02-21T13:33:53.084Z,130
2017-02-21T13:34:53.782Z,120
2017-02-21T13:35:53.001Z,115
2017-02-21T13:36:53.009Z,110
2017-02-21T13:37:52.576Z,130
2017-02-21T13:38:53.751Z,155
2017-02-21T13:39:53.328Z,120
2017-02-21T13:40:53.329Z,120
2017-02-21T13:41:52.936Z,120
2017-02-21T13:42:53.340Z,180
2017-02-21T13:43:53.286Z,135
2017-02-21T13:44:53.241Z,135
2017-02-21T13:45:52.836Z,130
2017-02-21T13:46:53.202Z,125
2017-02-21T13:47:53.615Z,120
2017-02-21T13:48:53.584Z,115
2017-02-21T13:49:52.786Z,120
2017-02-21T13:50:53.554Z,180
2017-02-21T13:51:53.193Z,120
2017-02-21T13:52:53.504Z,115
2017-02-21T13:53:53.101Z,110
2017-02-21T13:54:53.456Z,100
2017-02-21T13:55:52.289Z,95
2017-02-21T13:56:53.089Z,90
2017-02-21T13:57:53.051Z,90
2017-02-21T13:58:53.013Z,85
2017-02-21T13:59:53.009Z,105
2017-02-21T14:01:53.360Z,85
2017-02-21T14:03:52.937Z,80
2017-02-21T14:05:52.904Z,80
2017-02-21T14:06:52.867Z,80
2017-02-21T14:07:52.492Z,80
2017-02-21T14:08:53.245Z,75
2017-02-21T14:09:51.643Z,80
2017-02-21T14:10:52.795Z,85
2017-02-21T14:11:52.404Z,80
2017-02-21T14:12:53.170Z,80
2017-02-21T14:13:53.120Z,85
2017-02-21T14:14:51.960Z,85
2017-02-21T14:15:51.928Z,85
2017-02-21T14:16:53.097Z,85
2017-02-21T14:17:52.289Z,85
2017-02-21T14:18:52.349Z,115
2017-02-21T14:19:52.256Z,100
2017-02-21T14:20:52.615Z,100
2017-02-21T14:21:52.995Z,105
2017-02-21T14:22:52.175Z,105
2017-02-21T14:23:52.546Z,140
2017-02-21T14:24:52.253Z,120